Time;durP1;ratioP1;P1;durP2;ratioP2;P2;SDS_P1;SDS_P2;PMS_P1;PMS_P2;Temp;Humidity;BMP_temperature;BMP_pressure;BME280_temperature;BME280_humidity;BME280_pressure;Samples;Min_cycle;Max_cycle;Signal;HPM_P1;HPM_P2
2022/10/13 00:00:54;;;;;;;30.70;16.10;;;;;;;5.36;82.43;100506.23;106633;1290;22164;-69
2022/10/13 00:03:21;;;;;;;33.60;16.80;;;;;;;5.39;82.33;100513.45;106592;1303;22138;-70
2022/10/13 00:05:48;;;;;;;30.10;15.80;;;;;;;5.40;82.39;100515.46;106477;1303;138056;-70
2022/10/13 00:08:18;;;;;;;31.80;17.70;;;;;;;5.42;82.49;100517.41;106548;1305;22957;-71
2022/10/13 00:10:46;;;;;;;29.80;16.30;;;;;;;5.44;82.53;100518.60;106572;1303;138739;-71
2022/10/13 00:13:13;;;;;;;29.60;15.60;;;;;;;5.46;82.87;100513.13;106542;1303;22262;-71
2022/10/13 00:15:40;;;;;;;;;;;;;;;5.47;82.68;100511.84;106575;1304;22383;-71
2022/10/13 00:18:07;;;;;;;29.10;15.70;;;;;;;5.48;82.60;100517.37;106472;1303;124486;-70
2022/10/13 00:20:33;;;;;;;;;;;;;;;5.47;82.98;100516.34;106573;1303;22405;-70
2022/10/13 00:23:00;;;;;;;30.00;13.80;;;;;;;5.48;82.95;100516.36;106469;1303;125453;-71
2022/10/13 00:25:27;;;;;;;27.30;15.00;;;;;;;5.46;83.13;100510.70;106563;1303;22122;-70
2022/10/13 00:27:53;;;;;;;30.00;14.30;;;;;;;5.50;83.33;100511.59;106591;1303;22626;-70
2022/10/13 00:30:22;;;;;;;25.90;14.50;;;;;;;5.51;83.35;100509.80;106554;1303;137951;-70
2022/10/13 00:32:49;;;;;;;27.10;13.50;;;;;;;5.53;83.84;100509.95;106569;1303;22091;-71
2022/10/13 00:35:16;;;;;;;35.00;15.30;;;;;;;5.54;83.44;100506.54;106486;1303;138976;-70
2022/10/13 00:37:42;;;;;;;;;;;;;;;5.56;83.58;100508.64;106662;1302;23170;-71
2022/10/13 00:40:10;;;;;;;31.00;15.30;;;;;;;5.58;83.63;100509.81;106476;1301;124579;-75
2022/10/13 00:42:39;;;;;;;26.60;13.80;;;;;;;5.60;83.32;100513.19;106585;1303;22252;-76
2022/10/13 00:45:28;;;;;;;30.40;14.90;;;;;;;5.60;83.35;100510.82;106541;1304;22219;-76
2022/10/13 00:47:56;;;;;;;26.90;14.00;;;;;;;5.61;83.58;100507.25;106378;1304;138336;-75
2022/10/13 00:50:26;;;;;;;26.60;14.70;;;;;;;5.63;83.58;100513.20;106492;1303;22307;-75
2022/10/13 00:52:53;;;;;;;27.90;13.60;;;;;;;5.64;83.53;100501.84;106410;1302;138364;-80
2022/10/13 00:55:21;;;;;;;27.70;15.10;;;;;;;5.65;83.63;100503.13;106680;1304;22262;-79
2022/10/13 00:57:53;;;;;;;28.60;14.40;;;;;;;5.66;83.52;100503.76;106550;1304;22388;-80
2022/10/13 01:00:24;;;;;;;36.20;18.60;;;;;;;5.64;83.62;100499.64;106609;1303;138212;-80
2022/10/13 01:02:51;;;;;;;54.30;24.40;;;;;;;5.68;83.64;100505.60;103567;1306;22596;-78
2022/10/13 01:05:18;;;;;;;;;;;;;;;5.68;83.72;100500.57;102787;1310;138353;-78
2022/10/13 01:07:47;;;;;;;46.60;21.00;;;;;;;5.68;83.84;100502.69;102835;1295;23423;-78
2022/10/13 01:10:26;;;;;;;34.20;18.10;;;;;;;5.69;83.55;100502.65;106353;1310;138467;-79
2022/10/13 01:13:00;;;;;;;29.50;15.90;;;;;;;5.70;83.76;100498.58;106209;1303;22508;-79
2022/10/13 01:15:34;;;;;;;37.30;18.50;;;;;;;5.71;83.67;100498.63;102583;1312;22630;-76
2022/10/13 01:18:09;;;;;;;33.20;17.00;;;;;;;5.72;83.76;100497.63;106499;1302;140267;-78
2022/10/13 01:20:46;;;;;;;32.80;15.50;;;;;;;5.73;84.14;100500.52;106523;1303;22162;-77
2022/10/13 01:23:26;;;;;;;29.50;16.20;;;;;;;5.74;84.03;100494.61;103423;1302;139699;-77
2022/10/13 01:26:23;;;;;;;28.80;14.50;;;;;;;5.73;84.02;100496.81;102722;1294;22624;-77
2022/10/13 01:29:21;;;;;;;24.80;14.10;;;;;;;5.71;84.10;100489.19;102613;1309;138875;-78
2022/10/13 01:31:58;;;;;;;21.00;12.20;;;;;;;5.76;84.36;100490.91;102795;1311;22503;-77
2022/10/13 01:34:43;;;;;;;25.10;14.10;;;;;;;5.78;84.59;100491.24;102381;1309;138644;-77
2022/10/13 01:37:15;;;;;;;32.20;15.50;;;;;;;5.77;84.57;100492.57;106567;1298;22105;-78
2022/10/13 01:40:03;;;;;;;28.40;14.60;;;;;;;5.81;84.58;100496.53;106615;1296;23000;-71
2022/10/13 01:42:41;;;;;;;27.30;14.30;;;;;;;5.83;84.53;100490.05;106628;1303;22145;-74
2022/10/13 01:45:11;;;;;;;26.60;14.00;;;;;;;5.84;84.53;100487.48;104518;1303;24294;-72
2022/10/13 01:47:38;;;;;;;26.20;13.50;;;;;;;5.85;84.90;100492.19;102347;1290;138416;-74
2022/10/13 01:50:05;;;;;;;29.00;13.90;;;;;;;5.86;84.81;100492.19;102446;1313;22478;-72
2022/10/13 01:52:34;;;;;;;23.50;13.10;;;;;;;5.88;84.74;100492.58;106467;1303;139611;-70
2022/10/13 01:55:09;;;;;;;21.10;11.90;;;;;;;5.90;84.76;100490.86;106466;1303;22142;-72
2022/10/13 01:57:38;;;;;;;26.80;13.20;;;;;;;5.92;84.95;100493.23;106582;1304;23221;-71
2022/10/13 02:00:15;;;;;;;21.70;13.20;;;;;;;5.95;84.95;100487.54;106454;1303;138771;-71
2022/10/13 02:03:07;;;;;;;34.30;14.00;;;;;;;5.96;84.89;100491.16;106545;1303;22217;-72
2022/10/13 02:05:42;;;;;;;27.60;12.90;;;;;;;6.01;85.01;100489.52;106352;1304;140438;-72
2022/10/13 02:08:11;;;;;;;25.30;13.90;;;;;;;6.04;84.91;100488.61;106549;1304;22160;-72
2022/10/13 02:10:51;;;;;;;25.60;14.20;;;;;;;6.07;84.87;100487.68;106392;1294;139241;-72
2022/10/13 02:13:19;;;;;;;23.90;13.90;;;;;;;6.11;84.82;100488.61;106490;1298;23695;-72
2022/10/13 02:15:48;;;;;;;25.50;14.00;;;;;;;6.14;85.01;100493.61;106438;1303;22134;-73
2022/10/13 02:18:17;;;;;;;25.20;14.10;;;;;;;6.16;84.81;100487.72;106436;1299;138577;-72
2022/10/13 02:20:44;;;;;;;24.10;13.30;;;;;;;6.19;84.81;100485.31;106609;1304;23052;-71
2022/10/13 02:23:13;;;;;;;23.10;10.80;;;;;;;6.21;84.88;100485.71;106506;1302;140718;-71
2022/10/13 02:25:39;;;;;;;26.50;13.20;;;;;;;6.24;84.94;100488.09;106542;1303;23111;-71
2022/10/13 02:28:06;;;;;;;22.60;11.10;;;;;;;6.26;84.92;100484.56;106501;1303;139522;-70
2022/10/13 02:30:41;;;;;;;21.40;11.40;;;;;;;6.27;84.98;100485.98;106571;1297;22608;-71
2022/10/13 02:33:07;;;;;;;19.20;11.00;;;;;;;6.31;84.96;100495.86;106656;1303;22258;-70
2022/10/13 02:35:36;;;;;;;23.20;10.60;;;;;;;6.32;84.60;100500.52;106421;1303;138978;-70
2022/10/13 02:38:03;;;;;;;;;;;;;;;6.29;84.66;100497.69;106623;1303;22395;-71
2022/10/13 02:40:29;;;;;;;18.20;8.30;;;;;;;6.33;84.77;100500.08;106546;1303;125271;-70
2022/10/13 02:42:56;;;;;;;;;;;;;;;6.34;84.77;100498.94;106655;1303;22866;-71
2022/10/13 02:45:23;;;;;;;21.10;9.20;;;;;;;6.36;84.67;100493.84;106592;1298;22147;-71
2022/10/13 02:47:54;;;;;;;20.10;8.60;;;;;;;6.39;84.83;100488.86;106495;1302;139161;-71
2022/10/13 02:50:21;;;;;;;21.70;10.30;;;;;;;6.43;84.72;100489.87;106470;1304;22224;-71
2022/10/13 02:52:49;;;;;;;17.10;8.60;;;;;;;6.47;84.61;100489.17;106478;1304;139507;-71
2022/10/13 02:55:15;;;;;;;20.30;10.10;;;;;;;6.49;84.52;100488.42;106513;1304;22114;-71
2022/10/13 02:57:42;;;;;;;16.40;8.10;;;;;;;6.52;84.52;100492.56;102898;1304;22481;-70
2022/10/13 03:00:10;;;;;;;20.00;9.10;;;;;;;6.55;84.93;100491.45;102315;1288;138237;-71
2022/10/13 03:02:37;;;;;;;16.80;8.20;;;;;;;6.56;84.40;100486.20;106582;1304;22165;-71
2022/10/13 03:05:04;;;;;;;16.70;8.10;;;;;;;6.59;84.35;100485.13;106522;1302;139706;-72
2022/10/13 03:07:30;;;;;;;18.40;8.00;;;;;;;6.61;84.56;100486.80;106534;1304;22138;-72
2022/10/13 03:09:57;;;;;;;14.80;7.40;;;;;;;6.64;84.51;100485.33;106597;1304;22138;-72
2022/10/13 03:12:24;;;;;;;20.40;8.90;;;;;;;6.66;84.49;100484.81;106556;1302;138645;-73
2022/10/13 03:14:50;;;;;;;16.90;7.50;;;;;;;6.68;84.65;100479.20;106567;1305;22139;-72
2022/10/13 03:17:17;;;;;;;16.50;7.00;;;;;;;6.70;84.49;100481.54;106511;1303;139335;-72
2022/10/13 03:19:44;;;;;;;15.80;7.60;;;;;;;6.72;84.29;100482.20;106609;1304;22939;-72
2022/10/13 03:22:14;;;;;;;18.60;8.70;;;;;;;6.75;84.37;100482.54;106505;1304;139942;-71
2022/10/13 03:24:41;;;;;;;15.70;7.50;;;;;;;6.78;84.32;100478.08;106581;1304;22678;-72
2022/10/13 03:27:08;;;;;;;18.00;8.30;;;;;;;6.80;84.26;100481.31;106635;1302;22117;-72
2022/10/13 03:29:34;;;;;;;;;;;;;;;6.82;83.92;100481.27;106480;1303;138144;-71
2022/10/13 03:32:01;;;;;;;16.00;8.40;;;;;;;6.82;83.88;100479.73;106654;1304;22211;-72
2022/10/13 03:34:28;;;;;;;13.70;8.00;;;;;;;6.84;83.85;100478.60;106422;1305;141444;-71
2022/10/13 03:36:54;;;;;;;15.40;7.70;;;;;;;6.86;83.73;100479.11;106593;1303;23001;-71
2022/10/13 03:39:21;;;;;;;14.60;8.00;;;;;;;6.87;83.73;100479.23;106627;1304;22120;-76
2022/10/13 03:41:48;;;;;;;25.20;8.10;;;;;;;6.89;83.58;100478.86;104260;1305;139348;-76
2022/10/13 03:44:15;;;;;;;22.50;8.20;;;;;;;6.91;83.55;100478.56;102528;1280;22495;-79
2022/10/13 03:46:42;;;;;;;20.10;9.30;;;;;;;6.92;83.56;100479.81;102368;1312;138716;-70
2022/10/13 03:49:10;;;;;;;16.70;9.60;;;;;;;6.93;83.65;100487.25;102565;1297;24407;-72
2022/10/13 03:51:37;;;;;;;15.10;9.10;;;;;;;6.93;83.44;100483.08;102392;1306;22610;-78
2022/10/13 03:54:03;;;;;;;20.30;9.40;;;;;;;6.94;83.49;100482.83;102331;1311;139524;-77
2022/10/13 03:56:30;;;;;;;18.30;8.00;;;;;;;6.94;83.56;100486.25;102529;1312;22541;-77
2022/10/13 03:58:57;;;;;;;;;;;;;;;6.94;83.64;100491.96;102661;1301;138598;-77
2022/10/13 04:01:26;;;;;;;16.40;8.00;;;;;;;6.94;83.52;100490.25;102588;1312;24278;-77
2022/10/13 04:03:54;;;;;;;18.00;8.20;;;;;;;6.92;83.46;100490.28;106481;1284;23019;-78
2022/10/13 04:06:21;;;;;;;16.50;8.10;;;;;;;6.92;83.25;100496.16;106480;1304;139945;-78
2022/10/13 04:08:48;;;;;;;19.50;8.30;;;;;;;6.92;83.08;100495.12;106616;1304;23046;-78
2022/10/13 04:11:15;;;;;;;;;;;;;;;6.92;83.29;100500.29;106543;1303;138894;-78
2022/10/13 04:13:42;;;;;;;15.30;8.40;;;;;;;6.92;83.21;100497.90;106635;1303;22196;-75
2022/10/13 04:16:12;;;;;;;;;;;;;;;6.92;82.98;100495.40;106503;1304;138805;-74
2022/10/13 04:18:39;;;;;;;20.60;10.70;;;;;;;6.92;82.97;100497.70;106596;1305;22135;-74
2022/10/13 04:21:12;;;;;;;30.90;13.70;;;;;;;6.93;83.17;100501.92;106564;1304;22164;-74
2022/10/13 04:23:38;;;;;;;33.50;15.80;;;;;;;6.94;83.22;100502.71;106543;1304;139072;-75
2022/10/13 04:26:05;;;;;;;24.90;12.70;;;;;;;6.95;83.19;100505.09;106604;1290;23003;-74
2022/10/13 04:28:36;;;;;;;;;;;;;;;6.95;83.10;100500.34;106500;1305;138540;-74
2022/10/13 04:31:03;;;;;;;22.10;10.40;;;;;;;6.95;83.21;100497.67;106554;1305;22211;-77
2022/10/13 04:33:29;;;;;;;;;;;;;;;6.94;83.11;100495.38;106535;1305;22390;-79
2022/10/13 04:35:56;;;;;;;16.80;7.60;;;;;;;6.94;83.36;100497.30;106561;1305;125273;-78
2022/10/13 04:38:23;;;;;;;;;;;;;;;6.93;83.46;100497.48;106592;1304;22351;-79
2022/10/13 04:40:49;;;;;;;36.80;9.60;;;;;;;6.92;83.45;100495.90;105833;1305;977896;-78
2022/10/13 04:45:11;;;;;;;23.20;11.80;;;;;;;6.95;83.26;100493.89;99999;1335;545100;-78
2022/10/13 04:47:39;;;;;;;27.90;10.50;;;;;;;6.94;83.52;100495.46;101584;1311;138061;-71
2022/10/13 04:50:05;;;;;;;;;;;;;;;6.92;83.37;100498.64;101332;1323;22465;-69
2022/10/13 04:52:33;;;;;;;18.70;10.00;;;;;;;6.96;83.55;100506.02;102485;1294;123874;-77
2022/10/13 04:55:02;;;;;;;26.20;10.90;;;;;;;6.95;83.43;100504.88;104868;1305;22556;-79
2022/10/13 04:57:29;;;;;;;19.90;10.30;;;;;;;6.95;83.58;100511.42;102821;1307;22849;-79
2022/10/13 04:59:56;;;;;;;23.10;9.80;;;;;;;6.95;83.60;100510.09;101751;1310;1103227;-78
2022/10/13 05:02:23;;;;;;;23.30;10.90;;;;;;;6.96;83.64;100506.05;102557;1302;24536;-78
2022/10/13 05:04:49;;;;;;;18.90;11.10;;;;;;;6.96;83.33;100504.38;102490;1303;138924;-78
2022/10/13 05:07:17;;;;;;;23.50;10.50;;;;;;;6.97;83.31;100504.84;102854;1300;23048;-80
2022/10/13 05:09:45;;;;;;;23.80;9.60;;;;;;;6.98;83.57;100503.27;102509;1302;23923;-71
2022/10/13 05:12:12;;;;;;;19.30;10.00;;;;;;;6.99;83.59;100507.59;102515;1310;139295;-79
2022/10/13 05:14:38;;;;;;;49.50;23.30;;;;;;;7.00;83.55;100515.09;102724;1310;26757;-80
2022/10/13 05:17:06;;;;;;;32.10;15.20;;;;;;;6.99;83.72;100525.80;106301;1309;139190;-78
2022/10/13 05:19:33;;;;;;;;;;;;;;;6.97;83.24;100528.94;105994;1302;22469;-80
2022/10/13 05:21:59;;;;;;;30.80;12.20;;;;;;;6.93;83.54;100531.33;102928;1307;22947;-79
2022/10/13 05:24:35;;;;;;;29.40;10.30;;;;;;;6.90;83.37;100529.41;102840;1309;138475;-78
2022/10/13 05:27:04;;;;;;;19.20;8.90;;;;;;;6.89;83.24;100530.13;106495;1309;22971;-79
2022/10/13 05:29:33;;;;;;;20.90;8.60;;;;;;;6.91;83.47;100531.08;106799;1301;137838;-79
2022/10/13 05:32:00;;;;;;;19.70;9.50;;;;;;;6.94;83.57;100532.14;106908;1302;22165;-79
2022/10/13 05:34:26;;;;;;;32.50;14.20;;;;;;;6.97;83.59;100531.89;106823;1302;138066;-79
2022/10/13 05:36:53;;;;;;;25.40;12.60;;;;;;;7.00;83.71;100535.73;103479;1302;23905;-79
2022/10/13 05:39:20;;;;;;;19.10;9.50;;;;;;;7.05;83.80;100536.61;102902;1309;22601;-71
2022/10/13 05:41:46;;;;;;;;;;;;;;;7.07;83.98;100534.97;102548;1298;138333;-71
2022/10/13 05:44:19;;;;;;;17.50;8.70;;;;;;;7.10;83.85;100534.34;102714;1309;22519;-71
2022/10/13 05:46:52;;;;;;;17.40;8.80;;;;;;;7.13;83.94;100537.80;102417;1309;137870;-73
2022/10/13 05:49:18;;;;;;;;;;;;;;;7.15;84.00;100536.22;102696;1307;22524;-67
2022/10/13 05:51:46;;;;;;;22.40;9.90;;;;;;;7.18;84.09;100540.76;102682;1290;24257;-72
2022/10/13 05:54:32;;;;;;;20.80;10.90;;;;;;;7.20;83.90;100539.97;106687;1302;139042;-72
2022/10/13 05:57:13;;;;;;;26.80;10.50;;;;;;;7.23;83.65;100540.61;106812;1293;22352;-72
2022/10/13 05:59:43;;;;;;;21.30;10.40;;;;;;;7.26;83.56;100538.90;106651;1293;138397;-72
2022/10/13 06:02:10;;;;;;;19.30;8.40;;;;;;;7.30;83.76;100539.11;106741;1302;22187;-73
2022/10/13 06:04:40;;;;;;;22.00;9.30;;;;;;;7.33;83.75;100536.65;106811;1301;138635;-73
2022/10/13 06:07:07;;;;;;;22.20;12.10;;;;;;;7.36;83.65;100535.45;106767;1294;22280;-72
2022/10/13 06:09:34;;;;;;;19.10;10.40;;;;;;;7.41;83.81;100538.12;106802;1302;22134;-72
2022/10/13 06:12:02;;;;;;;19.60;9.70;;;;;;;7.45;83.60;100535.70;106661;1302;138365;-73
2022/10/13 06:14:29;;;;;;;18.70;9.30;;;;;;;7.49;83.58;100534.77;106783;1302;22214;-72
2022/10/13 06:16:55;;;;;;;30.90;10.00;;;;;;;7.54;83.43;100536.52;106681;1302;137728;-72
2022/10/13 06:19:22;;;;;;;41.30;16.80;;;;;;;7.57;83.44;100538.33;106839;1302;22168;-72
2022/10/13 06:21:49;;;;;;;;;;;;;;;7.62;83.60;100537.52;106798;1302;22416;-72
2022/10/13 06:24:15;;;;;;;24.80;11.20;;;;;;;7.66;83.37;100541.29;106736;1301;124131;-72
2022/10/13 06:26:42;;;;;;;;;;;;;;;7.70;83.35;100537.98;106765;1302;22341;-71
2022/10/13 06:29:09;;;;;;;50.40;11.70;;;;;;;7.74;83.21;100540.77;106749;1302;124218;-71
2022/10/13 06:31:36;;;;;;;29.50;9.50;;;;;;;7.78;83.08;100547.44;106777;1302;22105;-71
2022/10/13 06:34:03;;;;;;;;;;;;;;;7.83;82.90;100543.56;106748;1302;23086;-71
2022/10/13 06:36:30;;;;;;;26.60;11.60;;;;;;;7.87;82.78;100538.26;106624;1300;125347;-72
2022/10/13 06:38:57;;;;;;;58.80;29.50;;;;;;;7.91;82.48;100543.34;106748;1302;22132;-72
2022/10/13 06:41:24;;;;;;;53.90;29.00;;;;;;;7.95;82.39;100548.73;106763;1302;138662;-80
2022/10/13 06:43:50;;;;;;;;;;;;;;;7.99;82.22;100543.29;106823;1302;23282;-79
2022/10/13 06:46:19;;;;;;;39.20;17.30;;;;;;;8.04;82.01;100544.61;106649;1293;125000;-79
2022/10/13 06:48:50;;;;;;;;;;;;;;;8.08;81.90;100548.51;106888;1301;22316;-78
2022/10/13 06:51:16;;;;;;;34.30;15.70;;;;;;;8.12;81.71;100550.61;106717;1302;22150;-77
2022/10/13 06:53:43;;;;;;;25.70;11.60;;;;;;;8.17;81.54;100548.38;106699;1302;138887;-77
2022/10/13 06:56:10;;;;;;;;;;;;;;;8.21;81.46;100550.11;106740;1302;22436;-72
2022/10/13 06:58:37;;;;;;;23.20;12.30;;;;;;;8.25;81.50;100549.38;106783;1300;125509;-74
2022/10/13 07:01:04;;;;;;;;;;;;;;;8.30;81.39;100549.40;106864;1301;22394;-74
2022/10/13 07:03:31;;;;;;;24.10;9.50;;;;;;;8.34;81.38;100551.54;106862;1291;22315;-71
2022/10/13 07:06:01;;;;;;;22.20;9.40;;;;;;;8.39;81.22;100558.26;106643;1302;138706;-72
2022/10/13 07:08:28;;;;;;;15.40;8.50;;;;;;;8.38;80.94;100553.16;106770;1302;22924;-72
2022/10/13 07:10:55;;;;;;;26.00;10.30;;;;;;;8.40;80.75;100556.28;106715;1294;138683;-72
2022/10/13 07:13:22;;;;;;;22.70;10.60;;;;;;;8.41;80.75;100552.98;106775;1302;22160;-72
2022/10/13 07:15:49;;;;;;;29.70;10.70;;;;;;;8.45;80.83;100549.59;106752;1302;22229;-73
2022/10/13 07:18:16;;;;;;;41.70;14.30;;;;;;;8.49;80.82;100548.77;106630;1302;139219;-73
2022/10/13 07:20:43;;;;;;;37.60;13.60;;;;;;;8.54;80.75;100545.37;106757;1302;23158;-78
2022/10/13 07:23:10;;;;;;;35.50;14.50;;;;;;;8.60;80.68;100545.67;106673;1295;140031;-76
2022/10/13 07:25:36;;;;;;;35.90;15.10;;;;;;;8.64;80.61;100543.73;106890;1300;22118;-76
2022/10/13 07:28:04;;;;;;;38.60;14.40;;;;;;;8.70;80.47;100541.49;106771;1301;22147;-75
2022/10/13 07:30:30;;;;;;;;;;;;;;;8.75;80.44;100542.34;106678;1302;138113;-76
2022/10/13 07:32:58;;;;;;;43.60;14.70;;;;;;;8.80;80.26;100541.09;106801;1302;22210;-76
2022/10/13 07:35:25;;;;;;;44.60;20.10;;;;;;;8.84;80.06;100539.66;106783;1292;138981;-75
2022/10/13 07:37:56;;;;;;;35.70;14.50;;;;;;;8.89;80.10;100538.17;106805;1294;22170;-77
2022/10/13 07:40:23;;;;;;;;;;;;;;;8.94;79.90;100542.10;106639;1297;139444;-71
2022/10/13 07:42:50;;;;;;;31.30;12.20;;;;;;;8.99;79.69;100550.29;106770;1302;22442;-71
2022/10/13 07:45:17;;;;;;;;;;;;;;;9.03;79.67;100548.92;106723;1302;22422;-71
2022/10/13 07:47:43;;;;;;;33.30;14.10;;;;;;;9.05;79.34;100543.16;106656;1302;124853;-71
2022/10/13 07:50:10;;;;;;;;;;;;;;;9.12;79.23;100546.15;106781;1302;22345;-71
2022/10/13 07:52:37;;;;;;;39.00;13.90;;;;;;;9.16;78.95;100547.47;106672;1285;124554;-71
2022/10/13 07:55:04;;;;;;;;;;;;;;;9.20;79.09;100546.05;106744;1302;22690;-72
2022/10/13 07:57:34;;;;;;;35.10;13.60;;;;;;;9.26;79.17;100553.34;106862;1302;22151;-71
2022/10/13 08:00:05;;;;;;;42.20;13.40;;;;;;;9.31;79.09;100555.94;106572;1302;138876;-72
2022/10/13 08:02:37;;;;;;;31.60;15.90;;;;;;;9.34;78.62;100554.33;106894;1302;22087;-71
2022/10/13 08:05:04;;;;;;;47.70;15.30;;;;;;;9.35;77.98;100552.71;106652;1302;138813;-72
2022/10/13 08:07:31;;;;;;;44.70;14.90;;;;;;;9.37;77.80;100551.28;106774;1302;22828;-72
2022/10/13 08:09:58;;;;;;;;;;;;;;;9.40;78.23;100550.06;106754;1302;22350;-72
2022/10/13 08:12:24;;;;;;;51.00;15.40;;;;;;;9.44;78.33;100548.80;106672;1302;126447;-72
2022/10/13 08:14:51;;;;;;;;;;;;;;;9.50;78.44;100549.68;106772;1302;22380;-71
2022/10/13 08:17:18;;;;;;;37.40;13.50;;;;;;;9.55;78.48;100548.30;106695;1302;124687;-72
2022/10/13 08:19:45;;;;;;;41.80;14.50;;;;;;;9.58;78.19;100549.64;106778;1294;22449;-72
2022/10/13 08:22:12;;;;;;;;;;;;;;;9.66;77.87;100550.42;106786;1294;22355;-72
2022/10/13 08:24:38;;;;;;;31.40;13.40;;;;;;;9.71;77.82;100550.69;106653;1302;124928;-71
2022/10/13 08:27:05;;;;;;;28.30;12.30;;;;;;;9.77;77.77;100548.40;106780;1288;23364;-72
2022/10/13 08:29:34;;;;;;;34.10;12.90;;;;;;;9.82;77.64;100544.90;106659;1302;138267;-72
2022/10/13 08:32:01;;;;;;;;;;;;;;;9.87;77.23;100550.23;106785;1302;22341;-71
2022/10/13 08:34:28;;;;;;;32.00;11.90;;;;;;;9.92;76.89;100549.69;106673;1285;124175;-71
2022/10/13 08:36:56;;;;;;;31.00;12.10;;;;;;;9.97;77.00;100547.23;106801;1302;22139;-67
2022/10/13 08:39:23;;;;;;;35.10;13.90;;;;;;;10.02;76.94;100546.36;106803;1302;22115;-69
2022/10/13 08:41:50;;;;;;;268.50;150.90;;;;;;;10.07;76.97;100548.19;106684;1294;138715;-67
2022/10/13 08:44:32;;;;;;;85.50;45.90;;;;;;;10.12;76.68;100546.90;106793;1302;22166;-71
2022/10/13 08:47:43;;;;;;;45.30;19.40;;;;;;;10.18;76.83;100545.04;106680;1285;139055;-71
2022/10/13 08:50:13;;;;;;;25.80;14.60;;;;;;;10.25;76.35;100546.63;106820;1302;22239;-72
2022/10/13 08:52:52;;;;;;;32.00;13.00;;;;;;;10.30;76.26;100544.38;106701;1302;137497;-71
2022/10/13 08:55:28;;;;;;;27.70;12.40;;;;;;;10.36;76.15;100545.98;106724;1302;22128;-72
2022/10/13 08:57:55;;;;;;;29.50;12.40;;;;;;;10.41;75.68;100549.79;106809;1302;22809;-71
2022/10/13 09:00:25;;;;;;;26.10;12.10;;;;;;;10.44;75.33;100549.83;106623;1302;138163;-71
2022/10/13 09:02:52;;;;;;;26.70;12.80;;;;;;;10.47;74.93;100546.43;106696;1302;22134;-71
2022/10/13 09:05:37;;;;;;;31.20;13.90;;;;;;;10.51;75.19;100550.52;106685;1300;137951;-70
2022/10/13 09:08:10;;;;;;;25.10;11.10;;;;;;;10.54;74.87;100551.13;106668;1302;22191;-70
2022/10/13 09:10:58;;;;;;;19.10;10.00;;;;;;;10.57;75.09;100553.87;106630;1302;139626;-71
2022/10/13 09:13:26;;;;;;;23.50;9.50;;;;;;;10.61;75.00;100557.01;106797;1302;22113;-72
2022/10/13 09:15:55;;;;;;;22.00;9.90;;;;;;;10.65;74.72;100559.60;106822;1302;22551;-72
2022/10/13 09:18:27;;;;;;;21.10;10.10;;;;;;;10.69;74.73;100555.70;106640;1299;139276;-71
2022/10/13 09:21:19;;;;;;;24.60;10.70;;;;;;;10.74;74.55;100555.67;106754;1302;22673;-71
2022/10/13 09:23:48;;;;;;;23.80;12.10;;;;;;;10.79;74.16;100554.52;106655;1302;138605;-71
2022/10/13 09:26:19;;;;;;;27.90;10.60;;;;;;;10.82;73.91;100551.80;106768;1302;22099;-71
2022/10/13 09:28:48;;;;;;;26.00;11.90;;;;;;;10.84;73.44;100550.85;106666;1302;138429;-71
2022/10/13 09:31:34;;;;;;;45.90;15.60;;;;;;;10.85;72.91;100550.83;106756;1302;22140;-71
2022/10/13 09:34:10;;;;;;;40.30;16.20;;;;;;;10.89;72.92;100548.05;106739;1302;22125;-72
2022/10/13 09:36:37;;;;;;;55.50;18.60;;;;;;;10.93;72.93;100549.67;106604;1302;138995;-72
2022/10/13 09:39:14;;;;;;;48.70;16.80;;;;;;;10.96;72.80;100546.20;106763;1302;22125;-71
2022/10/13 09:41:43;;;;;;;48.80;18.10;;;;;;;10.99;72.49;100543.38;106806;1302;137710;-72
2022/10/13 09:44:17;;;;;;;42.80;14.90;;;;;;;11.03;72.09;100548.70;106798;1300;22185;-72
2022/10/13 09:46:50;;;;;;;44.40;14.80;;;;;;;11.01;71.87;100543.48;106624;1302;138193;-71
2022/10/13 09:49:34;;;;;;;47.70;16.30;;;;;;;11.04;71.97;100545.58;106736;1292;22196;-72
2022/10/13 09:52:13;;;;;;;54.30;16.90;;;;;;;11.07;72.04;100541.84;106780;1301;22378;-73
2022/10/13 09:54:43;;;;;;;36.90;13.70;;;;;;;11.11;72.25;100540.38;106612;1293;25460;-72
2022/10/13 09:57:16;;;;;;;38.70;12.20;;;;;;;11.13;71.86;100539.03;106553;1309;22132;-71
2022/10/13 09:59:48;;;;;;;44.50;13.10;;;;;;;11.14;71.94;100537.89;106676;1287;138408;-70
2022/10/13 10:02:27;;;;;;;42.80;12.60;;;;;;;11.16;71.81;100532.17;106910;1299;23373;-71
2022/10/13 10:04:57;;;;;;;37.00;12.50;;;;;;;11.19;71.51;100532.80;106745;1300;138721;-71
2022/10/13 10:07:25;;;;;;;39.10;11.90;;;;;;;11.22;71.14;100530.13;106679;1302;22113;-71
2022/10/13 10:09:56;;;;;;;30.60;11.90;;;;;;;11.23;71.45;100530.33;106692;1302;23045;-70
2022/10/13 10:12:28;;;;;;;32.30;12.60;;;;;;;11.27;71.55;100525.92;106731;1302;138957;-72
2022/10/13 10:14:55;;;;;;;36.10;13.50;;;;;;;11.32;71.67;100523.33;106613;1302;22064;-71
2022/10/13 10:17:33;;;;;;;31.80;11.50;;;;;;;11.36;71.65;100527.34;106773;1302;137956;-71
2022/10/13 10:20:12;;;;;;;33.80;11.30;;;;;;;11.39;71.57;100526.42;106907;1299;22156;-71
2022/10/13 10:22:59;;;;;;;28.50;11.90;;;;;;;11.39;71.09;100521.55;106670;1301;138569;-72
2022/10/13 10:25:38;;;;;;;31.20;10.80;;;;;;;11.44;71.03;100530.19;106790;1302;22230;-72
2022/10/13 10:28:42;;;;;;;32.00;11.90;;;;;;;11.43;70.64;100523.67;106876;1302;22178;-72
2022/10/13 10:31:29;;;;;;;28.80;11.20;;;;;;;11.44;70.81;100521.02;106838;1302;22583;-72
2022/10/13 10:34:09;;;;;;;30.20;10.90;;;;;;;11.46;70.65;100519.80;106889;1302;22211;-72
2022/10/13 10:36:51;;;;;;;31.90;10.30;;;;;;;11.48;70.72;100516.91;106725;1300;139073;-72
2022/10/13 10:39:32;;;;;;;;;;;;;;;11.51;70.76;100511.42;106745;1302;22994;-79
2022/10/13 10:42:03;;;;;;;24.00;9.00;;;;;;;11.56;70.77;100514.63;106791;1300;124829;-78
2022/10/13 10:44:32;;;;;;;24.30;9.30;;;;;;;11.59;70.17;100510.88;106796;1302;22116;-79
2022/10/13 10:47:08;;;;;;;33.10;9.70;;;;;;;11.61;70.18;100508.29;106762;1301;137965;-80
2022/10/13 10:49:38;;;;;;;25.20;9.30;;;;;;;11.63;70.22;100508.62;106618;1295;22140;-73
2022/10/13 10:52:07;;;;;;;19.20;7.90;;;;;;;11.63;69.68;100511.30;106865;1300;22771;-79
2022/10/13 10:54:43;;;;;;;19.10;8.10;;;;;;;11.64;69.22;100504.70;106642;1302;138242;-78
2022/10/13 10:57:25;;;;;;;12.70;6.90;;;;;;;11.64;69.15;100504.88;106114;1303;25248;-78
2022/10/13 11:00:06;;;;;;;21.90;7.40;;;;;;;11.65;69.31;100506.27;102520;1288;138643;-72
2022/10/13 11:02:50;;;;;;;13.30;6.10;;;;;;;11.65;68.90;100505.27;102651;1300;22533;-73
2022/10/13 11:05:17;;;;;;;12.80;6.50;;;;;;;11.63;68.94;100503.33;102568;1309;138835;-74
2022/10/13 11:07:45;;;;;;;12.80;6.30;;;;;;;11.63;68.74;100508.84;102712;1308;22486;-73
2022/10/13 11:10:12;;;;;;;15.70;6.70;;;;;;;11.62;68.64;100508.86;102872;1292;25278;-74
2022/10/13 11:12:51;;;;;;;17.20;7.50;;;;;;;11.62;68.69;100507.82;106333;1309;137455;-73
2022/10/13 11:15:23;;;;;;;24.80;7.70;;;;;;;11.62;68.87;100503.95;106767;1300;22895;-75
2022/10/13 11:17:50;;;;;;;18.80;7.60;;;;;;;11.62;69.15;100507.46;106647;1301;138215;-75
2022/10/13 11:20:20;;;;;;;15.00;6.60;;;;;;;11.65;69.67;100503.64;106730;1302;22107;-79
2022/10/13 11:22:59;;;;;;;14.80;6.00;;;;;;;11.67;69.47;100500.91;106721;1302;139353;-78
2022/10/13 11:25:45;;;;;;;16.70;5.90;;;;;;;11.69;68.73;100503.48;106875;1302;22116;-79
2022/10/13 11:28:21;;;;;;;15.30;5.30;;;;;;;11.67;68.46;100502.33;102912;1301;22495;-75
2022/10/13 11:30:49;;;;;;;17.30;5.00;;;;;;;11.66;68.61;100502.62;105288;1301;25713;-79
2022/10/13 11:33:38;;;;;;;12.90;5.40;;;;;;;11.65;68.24;100503.33;106898;1302;22130;-79